sensor_id;sensor_type;location;lat;lon;timestamp;pressure;altitude;pressure_sealevel;temperature;humidity
76424;BME280;65257;52.104;4.268;2024-03-23T00:54:57;101025.63;;;8.11;71.93
76424;BME280;65257;52.104;4.268;2024-03-23T00:57:22;101024.28;;;8.05;71.89
76424;BME280;65257;52.104;4.268;2024-03-23T00:59:48;101016.78;;;7.99;71.63
76424;BME280;65257;52.104;4.268;2024-03-23T01:02:16;101018.94;;;7.94;71.89
76424;BME280;65257;52.104;4.268;2024-03-23T01:04:42;101015.91;;;7.87;71.95
76424;BME280;65257;52.104;4.268;2024-03-23T01:07:07;101010.84;;;7.84;72.29
76424;BME280;65257;52.104;4.268;2024-03-23T01:09:34;101011.91;;;7.82;72.30
76424;BME280;65257;52.104;4.268;2024-03-23T01:11:59;101009.59;;;7.77;72.12
76424;BME280;65257;52.104;4.268;2024-03-23T01:14:24;101009.72;;;7.76;72.13
76424;BME280;65257;52.104;4.268;2024-03-23T01:16:56;101002.84;;;7.73;72.14
76424;BME280;65257;52.104;4.268;2024-03-23T01:19:23;101002.00;;;7.73;72.76
76424;BME280;65257;52.104;4.268;2024-03-23T01:21:49;101002.13;;;7.71;72.69
76424;BME280;65257;52.104;4.268;2024-03-23T01:24:17;101007.41;;;7.71;72.59
76424;BME280;65257;52.104;4.268;2024-03-23T01:26:43;101002.34;;;7.68;72.68
76424;BME280;65257;52.104;4.268;2024-03-23T01:29:08;100999.06;;;7.65;72.84
76424;BME280;65257;52.104;4.268;2024-03-23T01:31:33;101002.91;;;7.61;72.78
76424;BME280;65257;52.104;4.268;2024-03-23T01:33:59;100995.91;;;7.60;73.64
76424;BME280;65257;52.104;4.268;2024-03-23T01:36:24;100997.69;;;7.59;72.91
76424;BME280;65257;52.104;4.268;2024-03-23T01:38:56;100991.56;;;7.59;73.12
76424;BME280;65257;52.104;4.268;2024-03-23T01:41:23;100986.25;;;7.59;73.05
76424;BME280;65257;52.104;4.268;2024-03-23T01:43:50;100975.69;;;7.59;72.96
76424;BME280;65257;52.104;4.268;2024-03-23T01:46:19;100983.75;;;7.57;72.64
76424;BME280;65257;52.104;4.268;2024-03-23T01:48:47;100986.50;;;7.56;72.28
76424;BME280;65257;52.104;4.268;2024-03-23T01:51:13;100986.16;;;7.60;73.25
76424;BME280;65257;52.104;4.268;2024-03-23T01:53:39;100982.69;;;7.60;72.52
76424;BME280;65257;52.104;4.268;2024-03-23T01:56:08;100987.34;;;7.56;72.48
76424;BME280;65257;52.104;4.268;2024-03-23T01:58:37;100979.31;;;7.58;72.36
76424;BME280;65257;52.104;4.268;2024-03-23T02:01:02;100977.50;;;7.58;71.92
76424;BME280;65257;52.104;4.268;2024-03-23T02:03:30;100975.47;;;7.62;72.56
76424;BME280;65257;52.104;4.268;2024-03-23T02:05:59;100983.41;;;7.62;72.03
76424;BME280;65257;52.104;4.268;2024-03-23T02:08:35;100970.06;;;7.63;71.77
76424;BME280;65257;52.104;4.268;2024-03-23T02:11:04;100969.22;;;7.63;71.64
76424;BME280;65257;52.104;4.268;2024-03-23T02:13:29;100957.78;;;7.62;71.46
76424;BME280;65257;52.104;4.268;2024-03-23T02:15:57;100961.28;;;7.63;71.34
76424;BME280;65257;52.104;4.268;2024-03-23T02:18:22;100959.56;;;7.62;71.08
76424;BME280;65257;52.104;4.268;2024-03-23T02:20:53;100955.25;;;7.61;70.73
76424;BME280;65257;52.104;4.268;2024-03-23T02:23:22;100953.69;;;7.58;70.89
76424;BME280;65257;52.104;4.268;2024-03-23T02:25:49;100948.41;;;7.58;71.26
76424;BME280;65257;52.104;4.268;2024-03-23T02:28:15;100943.91;;;7.59;70.51
76424;BME280;65257;52.104;4.268;2024-03-23T02:30:42;100952.72;;;7.59;70.49
76424;BME280;65257;52.104;4.268;2024-03-23T02:33:07;100957.28;;;7.57;70.94
76424;BME280;65257;52.104;4.268;2024-03-23T02:35:33;100943.19;;;7.57;71.50
76424;BME280;65257;52.104;4.268;2024-03-23T02:38:04;100936.09;;;7.57;71.37
76424;BME280;65257;52.104;4.268;2024-03-23T02:40:32;100933.47;;;7.57;71.11
76424;BME280;65257;52.104;4.268;2024-03-23T02:42:58;100936.09;;;7.57;71.19
76424;BME280;65257;52.104;4.268;2024-03-23T02:45:26;100927.44;;;7.55;70.84
76424;BME280;65257;52.104;4.268;2024-03-23T02:47:51;100929.00;;;7.58;70.64
76424;BME280;65257;52.104;4.268;2024-03-23T02:50:20;100933.09;;;7.62;70.92
76424;BME280;65257;52.104;4.268;2024-03-23T02:52:47;100932.16;;;7.63;71.08
76424;BME280;65257;52.104;4.268;2024-03-23T02:55:13;100931.31;;;7.62;70.87
76424;BME280;65257;52.104;4.268;2024-03-23T02:57:40;100929.06;;;7.69;70.67
76424;BME280;65257;52.104;4.268;2024-03-23T03:00:14;100931.84;;;7.78;70.76
76424;BME280;65257;52.104;4.268;2024-03-23T03:02:45;100921.25;;;7.78;70.12
76424;BME280;65257;52.104;4.268;2024-03-23T03:05:11;100915.97;;;7.78;69.57
76424;BME280;65257;52.104;4.268;2024-03-23T03:07:40;100917.06;;;7.76;69.42
76424;BME280;65257;52.104;4.268;2024-03-23T03:10:10;100921.00;;;7.70;69.40
76424;BME280;65257;52.104;4.268;2024-03-23T03:12:37;100918.81;;;7.64;69.80
76424;BME280;65257;52.104;4.268;2024-03-23T03:15:06;100920.09;;;7.59;69.25
76424;BME280;65257;52.104;4.268;2024-03-23T03:17:34;100923.00;;;7.56;69.13
76424;BME280;65257;52.104;4.268;2024-03-23T03:20:00;100924.16;;;7.52;69.31
76424;BME280;65257;52.104;4.268;2024-03-23T03:22:25;100920.78;;;7.50;70.23
76424;BME280;65257;52.104;4.268;2024-03-23T03:24:58;100913.94;;;7.47;70.59
76424;BME280;65257;52.104;4.268;2024-03-23T03:27:25;100916.94;;;7.43;69.67
76424;BME280;65257;52.104;4.268;2024-03-23T03:29:59;100905.00;;;7.37;69.10
76424;BME280;65257;52.104;4.268;2024-03-23T03:32:31;100909.53;;;7.35;69.42
76424;BME280;65257;52.104;4.268;2024-03-23T03:35:00;100900.00;;;7.32;69.69
76424;BME280;65257;52.104;4.268;2024-03-23T03:37:37;100908.06;;;7.31;69.54
76424;BME280;65257;52.104;4.268;2024-03-23T03:40:02;100910.00;;;7.29;70.51
76424;BME280;65257;52.104;4.268;2024-03-23T03:42:34;100912.88;;;7.26;70.31
76424;BME280;65257;52.104;4.268;2024-03-23T03:44:59;100904.22;;;7.24;70.60
76424;BME280;65257;52.104;4.268;2024-03-23T03:47:24;100901.66;;;7.22;70.81
76424;BME280;65257;52.104;4.268;2024-03-23T03:49:50;100897.44;;;7.20;70.92
76424;BME280;65257;52.104;4.268;2024-03-23T03:52:18;100896.59;;;7.19;71.42
76424;BME280;65257;52.104;4.268;2024-03-23T03:54:43;100896.84;;;7.16;71.34
76424;BME280;65257;52.104;4.268;2024-03-23T03:57:12;100884.66;;;7.14;71.44
76424;BME280;65257;52.104;4.268;2024-03-23T03:59:38;100887.41;;;7.12;71.55
76424;BME280;65257;52.104;4.268;2024-03-23T04:02:06;100882.34;;;7.09;71.38
76424;BME280;65257;52.104;4.268;2024-03-23T04:04:32;100898.22;;;7.09;71.90
76424;BME280;65257;52.104;4.268;2024-03-23T04:07:01;100881.75;;;7.06;71.87
76424;BME280;65257;52.104;4.268;2024-03-23T04:09:27;100892.56;;;7.03;71.54
76424;BME280;65257;52.104;4.268;2024-03-23T04:11:53;100884.63;;;7.03;71.63
76424;BME280;65257;52.104;4.268;2024-03-23T04:14:19;100885.22;;;7.06;71.81
76424;BME280;65257;52.104;4.268;2024-03-23T04:16:47;100882.34;;;7.09;72.12
76424;BME280;65257;52.104;4.268;2024-03-23T04:19:13;100877.06;;;7.09;72.04
76424;BME280;65257;52.104;4.268;2024-03-23T04:21:40;100876.97;;;7.11;72.89
76424;BME280;65257;52.104;4.268;2024-03-23T04:24:06;100870.47;;;7.15;72.29
76424;BME280;65257;52.104;4.268;2024-03-23T04:26:44;100878.31;;;7.16;72.82
76424;BME280;65257;52.104;4.268;2024-03-23T04:29:09;100876.84;;;7.12;72.73
76424;BME280;65257;52.104;4.268;2024-03-23T04:31:40;100878.13;;;7.07;72.98
76424;BME280;65257;52.104;4.268;2024-03-23T04:34:06;100884.28;;;7.07;72.93
76424;BME280;65257;52.104;4.268;2024-03-23T04:36:31;100883.84;;;7.13;73.33
76424;BME280;65257;52.104;4.268;2024-03-23T04:39:00;100885.41;;;7.16;73.46
76424;BME280;65257;52.104;4.268;2024-03-23T04:41:26;100884.56;;;7.15;72.96
76424;BME280;65257;52.104;4.268;2024-03-23T04:43:52;100888.06;;;7.16;73.14
76424;BME280;65257;52.104;4.268;2024-03-23T04:46:17;100882.41;;;7.20;73.23
76424;BME280;65257;52.104;4.268;2024-03-23T04:48:46;100872.22;;;7.27;72.62
76424;BME280;65257;52.104;4.268;2024-03-23T04:51:20;100867.69;;;7.29;72.23
76424;BME280;65257;52.104;4.268;2024-03-23T04:53:46;100874.63;;;7.30;71.89
76424;BME280;65257;52.104;4.268;2024-03-23T04:56:13;100872.13;;;7.28;71.35
76424;BME280;65257;52.104;4.268;2024-03-23T04:58:38;100887.13;;;7.28;71.91
76424;BME280;65257;52.104;4.268;2024-03-23T05:01:04;100867.03;;;7.25;71.71
76424;BME280;65257;52.104;4.268;2024-03-23T05:03:30;100869.56;;;7.27;71.92
76424;BME280;65257;52.104;4.268;2024-03-23T05:05:58;100875.63;;;7.29;71.62
76424;BME280;65257;52.104;4.268;2024-03-23T05:08:23;100873.06;;;7.27;71.36
76424;BME280;65257;52.104;4.268;2024-03-23T05:10:52;100880.28;;;7.25;71.47
76424;BME280;65257;52.104;4.268;2024-03-23T05:13:17;100879.03;;;7.18;71.98
76424;BME280;65257;52.104;4.268;2024-03-23T05:15:52;100876.50;;;7.17;72.67
76424;BME280;65257;52.104;4.268;2024-03-23T05:18:17;100888.78;;;7.18;72.94
76424;BME280;65257;52.104;4.268;2024-03-23T05:20:44;100883.63;;;7.16;73.26
76424;BME280;65257;52.104;4.268;2024-03-23T05:23:09;100883.84;;;7.13;73.22
76424;BME280;65257;52.104;4.268;2024-03-23T05:25:38;100879.72;;;7.09;73.03
76424;BME280;65257;52.104;4.268;2024-03-23T05:28:06;100878.03;;;7.08;72.92
76424;BME280;65257;52.104;4.268;2024-03-23T05:30:35;100883.41;;;7.07;73.38
76424;BME280;65257;52.104;4.268;2024-03-23T05:33:00;100880.28;;;7.02;73.13
76424;BME280;65257;52.104;4.268;2024-03-23T05:35:26;100876.06;;;6.99;73.51
76424;BME280;65257;52.104;4.268;2024-03-23T05:37:51;100869.19;;;6.97;73.19
76424;BME280;65257;52.104;4.268;2024-03-23T05:40:17;100877.75;;;7.00;72.83
76424;BME280;65257;52.104;4.268;2024-03-23T05:42:42;100874.03;;;7.03;73.27
76424;BME280;65257;52.104;4.268;2024-03-23T05:45:10;100872.56;;;6.99;72.85
76424;BME280;65257;52.104;4.268;2024-03-23T05:47:36;100870.97;;;6.96;73.27
76424;BME280;65257;52.104;4.268;2024-03-23T05:50:04;100868.47;;;6.95;73.41
76424;BME280;65257;52.104;4.268;2024-03-23T05:52:30;100864.63;;;6.99;73.66
76424;BME280;65257;52.104;4.268;2024-03-23T05:54:55;100863.78;;;6.98;73.01
76424;BME280;65257;52.104;4.268;2024-03-23T05:57:21;100871.19;;;6.93;72.80
76424;BME280;65257;52.104;4.268;2024-03-23T05:59:46;100868.16;;;6.87;72.85
76424;BME280;65257;52.104;4.268;2024-03-23T06:02:11;100870.09;;;6.85;73.04
76424;BME280;65257;52.104;4.268;2024-03-23T06:04:40;100876.19;;;6.85;73.43
76424;BME280;65257;52.104;4.268;2024-03-23T06:07:05;100881.47;;;6.85;73.42
76424;BME280;65257;52.104;4.268;2024-03-23T06:09:57;100878.53;;;6.90;73.23
76424;BME280;65257;52.104;4.268;2024-03-23T06:12:22;100880.41;;;6.88;73.21
76424;BME280;65257;52.104;4.268;2024-03-23T06:14:48;100881.78;;;6.93;73.24
76424;BME280;65257;52.104;4.268;2024-03-23T06:17:14;100883.03;;;7.00;73.65
76424;BME280;65257;52.104;4.268;2024-03-23T06:19:46;100869.34;;;7.06;73.00
76424;BME280;65257;52.104;4.268;2024-03-23T06:22:12;100875.91;;;7.13;72.43
76424;BME280;65257;52.104;4.268;2024-03-23T06:24:37;100876.63;;;7.15;72.36
76424;BME280;65257;52.104;4.268;2024-03-23T06:27:03;100878.91;;;7.20;72.41
76424;BME280;65257;52.104;4.268;2024-03-23T06:29:29;100879.41;;;7.25;73.04
76424;BME280;65257;52.104;4.268;2024-03-23T06:31:55;100886.06;;;7.30;73.06
76424;BME280;65257;52.104;4.268;2024-03-23T06:34:20;100875.38;;;7.32;73.67
76424;BME280;65257;52.104;4.268;2024-03-23T06:36:55;100872.75;;;7.32;72.54
76424;BME280;65257;52.104;4.268;2024-03-23T06:39:21;100879.47;;;7.36;72.27
76424;BME280;65257;52.104;4.268;2024-03-23T06:41:53;100873.38;;;7.47;71.65
76424;BME280;65257;52.104;4.268;2024-03-23T06:44:22;100867.91;;;7.61;70.89
76424;BME280;65257;52.104;4.268;2024-03-23T06:46:57;100875.16;;;7.70;70.51
76424;BME280;65257;52.104;4.268;2024-03-23T06:49:23;100875.16;;;7.70;70.63
76424;BME280;65257;52.104;4.268;2024-03-23T06:51:51;100884.53;;;7.63;70.79
76424;BME280;65257;52.104;4.268;2024-03-23T06:54:20;100869.09;;;7.57;71.22
76424;BME280;65257;52.104;4.268;2024-03-23T06:56:45;100869.00;;;7.58;71.51
76424;BME280;65257;52.104;4.268;2024-03-23T06:59:11;100869.97;;;7.68;71.05
76424;BME280;65257;52.104;4.268;2024-03-23T07:01:40;100875.56;;;7.98;70.06
76424;BME280;65257;52.104;4.268;2024-03-23T07:04:05;100873.66;;;8.12;70.29
76424;BME280;65257;52.104;4.268;2024-03-23T07:06:34;100876.06;;;8.03;69.50
76424;BME280;65257;52.104;4.268;2024-03-23T07:08:59;100874.88;;;8.08;69.28
76424;BME280;65257;52.104;4.268;2024-03-23T07:11:24;100890.06;;;8.06;69.10
76424;BME280;65257;52.104;4.268;2024-03-23T07:13:51;100864.88;;;8.00;69.07
76424;BME280;65257;52.104;4.268;2024-03-23T07:16:20;100871.84;;;8.01;68.72
76424;BME280;65257;52.104;4.268;2024-03-23T07:18:46;100874.38;;;8.02;68.65
76424;BME280;65257;52.104;4.268;2024-03-23T07:21:14;100875.09;;;7.93;68.86
76424;BME280;65257;52.104;4.268;2024-03-23T07:23:42;100886.06;;;8.00;67.71
76424;BME280;65257;52.104;4.268;2024-03-23T07:26:10;100891.31;;;8.35;67.85
76424;BME280;65257;52.104;4.268;2024-03-23T07:28:39;100885.28;;;8.55;67.65
76424;BME280;65257;52.104;4.268;2024-03-23T07:31:10;100891.28;;;8.79;67.64
76424;BME280;65257;52.104;4.268;2024-03-23T07:33:46;100882.09;;;9.05;67.03
76424;BME280;65257;52.104;4.268;2024-03-23T07:36:12;100872.59;;;9.35;65.83
76424;BME280;65257;52.104;4.268;2024-03-23T07:38:41;100883.66;;;9.40;65.33
76424;BME280;65257;52.104;4.268;2024-03-23T07:41:16;100872.34;;;9.58;65.10
76424;BME280;65257;52.104;4.268;2024-03-23T07:43:47;100874.84;;;9.39;64.68
76424;BME280;65257;52.104;4.268;2024-03-23T07:46:16;100876.34;;;9.32;65.24
76424;BME280;65257;52.104;4.268;2024-03-23T07:48:42;100874.88;;;9.28;64.51
76424;BME280;65257;52.104;4.268;2024-03-23T07:51:19;100870.56;;;9.27;64.59
76424;BME280;65257;52.104;4.268;2024-03-23T07:53:51;100887.06;;;11.04;62.67
76424;BME280;65257;52.104;4.268;2024-03-23T07:56:18;100863.13;;;12.73;59.15
76424;BME280;65257;52.104;4.268;2024-03-23T07:58:44;100868.91;;;11.95;59.15
76424;BME280;65257;52.104;4.268;2024-03-23T08:01:15;100877.72;;;11.29;58.81
76424;BME280;65257;52.104;4.268;2024-03-23T08:03:45;100879.59;;;10.79;59.60
76424;BME280;65257;52.104;4.268;2024-03-23T08:06:18;100862.50;;;13.16;56.97
76424;BME280;65257;52.104;4.268;2024-03-23T08:08:48;100863.56;;;14.02;54.64
76424;BME280;65257;52.104;4.268;2024-03-23T08:11:16;100866.38;;;12.95;54.45
76424;BME280;65257;52.104;4.268;2024-03-23T08:13:45;100870.28;;;12.09;55.84
76424;BME280;65257;52.104;4.268;2024-03-23T08:16:13;100860.63;;;11.41;56.53
76424;BME280;65257;52.104;4.268;2024-03-23T08:18:39;100861.19;;;11.16;57.12
76424;BME280;65257;52.104;4.268;2024-03-23T08:21:05;100862.16;;;11.15;57.33
76424;BME280;65257;52.104;4.268;2024-03-23T08:23:39;100857.41;;;11.56;56.40
76424;BME280;65257;52.104;4.268;2024-03-23T08:26:14;100863.31;;;11.31;56.79
76424;BME280;65257;52.104;4.268;2024-03-23T08:28:39;100871.63;;;10.79;56.92
76424;BME280;65257;52.104;4.268;2024-03-23T08:31:07;100864.75;;;10.36;57.96
76424;BME280;65257;52.104;4.268;2024-03-23T08:33:33;100855.00;;;10.16;58.52
76424;BME280;65257;52.104;4.268;2024-03-23T08:36:06;100860.16;;;9.97;59.19
76424;BME280;65257;52.104;4.268;2024-03-23T08:38:33;100850.88;;;12.80;55.50
76424;BME280;65257;52.104;4.268;2024-03-23T08:41:06;100852.47;;;15.48;49.83
76424;BME280;65257;52.104;4.268;2024-03-23T08:43:34;100850.31;;;17.47;45.53
76424;BME280;65257;52.104;4.268;2024-03-23T08:46:11;100857.16;;;19.48;42.17
76424;BME280;65257;52.104;4.268;2024-03-23T08:48:41;100835.78;;;20.98;37.64
76424;BME280;65257;52.104;4.268;2024-03-23T08:51:10;100839.94;;;19.70;38.42
76424;BME280;65257;52.104;4.268;2024-03-23T08:53:39;100862.69;;;18.31;39.47
76424;BME280;65257;52.104;4.268;2024-03-23T08:56:09;100848.97;;;18.41;39.26
76424;BME280;65257;52.104;4.268;2024-03-23T08:58:35;100859.66;;;17.59;40.40
76424;BME280;65257;52.104;4.268;2024-03-23T09:01:08;100862.25;;;17.53;40.82
76424;BME280;65257;52.104;4.268;2024-03-23T09:03:35;100865.53;;;17.63;40.05
76424;BME280;65257;52.104;4.268;2024-03-23T09:06:02;100868.53;;;16.76;41.72
76424;BME280;65257;52.104;4.268;2024-03-23T09:08:28;100865.38;;;19.40;37.66
76424;BME280;65257;52.104;4.268;2024-03-23T09:10:56;100853.81;;;17.56;39.24
76424;BME280;65257;52.104;4.268;2024-03-23T09:13:25;100863.00;;;16.14;41.82
76424;BME280;65257;52.104;4.268;2024-03-23T09:15:54;100865.59;;;15.09;43.32
76424;BME280;65257;52.104;4.268;2024-03-23T09:18:22;100875.56;;;14.83;44.34
76424;BME280;65257;52.104;4.268;2024-03-23T09:20:54;100852.91;;;16.24;42.44
76424;BME280;65257;52.104;4.268;2024-03-23T09:23:20;100855.44;;;16.02;42.68
76424;BME280;65257;52.104;4.268;2024-03-23T09:25:47;100877.28;;;15.58;43.06
76424;BME280;65257;52.104;4.268;2024-03-23T09:28:21;100873.66;;;15.25;44.15
76424;BME280;65257;52.104;4.268;2024-03-23T09:30:47;100863.53;;;14.20;45.71
76424;BME280;65257;52.104;4.268;2024-03-23T09:33:19;100862.19;;;13.19;47.54
76424;BME280;65257;52.104;4.268;2024-03-23T09:35:44;100857.97;;;14.81;46.40
76424;BME280;65257;52.104;4.268;2024-03-23T09:38:12;100870.09;;;14.51;46.78
76424;BME280;65257;52.104;4.268;2024-03-23T09:40:41;100867.19;;;13.93;46.97
76424;BME280;65257;52.104;4.268;2024-03-23T09:43:10;100861.34;;;15.97;44.08
76424;BME280;65257;52.104;4.268;2024-03-23T09:45:40;100857.66;;;15.98;43.20
76424;BME280;65257;52.104;4.268;2024-03-23T09:48:09;100861.00;;;15.76;43.38
76424;BME280;65257;52.104;4.268;2024-03-23T09:50:38;100871.72;;;16.16;44.10
76424;BME280;65257;52.104;4.268;2024-03-23T09:53:08;100862.06;;;17.92;40.84
76424;BME280;65257;52.104;4.268;2024-03-23T09:55:37;100852.50;;;17.89;39.43
76424;BME280;65257;52.104;4.268;2024-03-23T09:58:03;100860.41;;;17.53;40.42
76424;BME280;65257;52.104;4.268;2024-03-23T10:00:30;100857.78;;;16.21;42.14
76424;BME280;65257;52.104;4.268;2024-03-23T10:03:18;100855.69;;;16.55;41.38
76424;BME280;65257;52.104;4.268;2024-03-23T10:05:44;100866.03;;;16.03;42.60
76424;BME280;65257;52.104;4.268;2024-03-23T10:10:38;100855.06;;;19.92;37.70
76424;BME280;65257;52.104;4.268;2024-03-23T10:13:04;100864.63;;;20.85;35.79
76424;BME280;65257;52.104;4.268;2024-03-23T10:15:29;100851.13;;;20.44;35.17
76424;BME280;65257;52.104;4.268;2024-03-23T10:17:58;100852.13;;;22.69;32.86
76424;BME280;65257;52.104;4.268;2024-03-23T10:20:24;100854.84;;;24.50;29.94
76424;BME280;65257;52.104;4.268;2024-03-23T10:22:53;100840.28;;;24.99;27.92
76424;BME280;65257;52.104;4.268;2024-03-23T10:25:22;100849.53;;;23.94;29.42
76424;BME280;65257;52.104;4.268;2024-03-23T10:28:03;100843.53;;;23.85;28.92
76424;BME280;65257;52.104;4.268;2024-03-23T10:30:29;100833.09;;;23.82;29.05
76424;BME280;65257;52.104;4.268;2024-03-23T10:33:08;100832.19;;;22.30;29.76
76424;BME280;65257;52.104;4.268;2024-03-23T10:35:37;100838.56;;;21.11;31.34
76424;BME280;65257;52.104;4.268;2024-03-23T10:38:06;100827.22;;;22.01;30.62
76424;BME280;65257;52.104;4.268;2024-03-23T10:40:38;100827.72;;;21.18;31.17
76424;BME280;65257;52.104;4.268;2024-03-23T10:43:06;100832.38;;;21.37;30.34
76424;BME280;65257;52.104;4.268;2024-03-23T10:45:37;100835.13;;;22.03;29.90
76424;BME280;65257;52.104;4.268;2024-03-23T10:48:04;100834.88;;;21.45;30.44
76424;BME280;65257;52.104;4.268;2024-03-23T10:50:29;100829.47;;;21.71;30.37
76424;BME280;65257;52.104;4.268;2024-03-23T10:52:56;100835.50;;;23.72;28.31
76424;BME280;65257;52.104;4.268;2024-03-23T10:55:24;100836.63;;;25.34;26.05
76424;BME280;65257;52.104;4.268;2024-03-23T10:57:54;100817.13;;;26.02;25.88
76424;BME280;65257;52.104;4.268;2024-03-23T11:00:20;100821.78;;;26.13;24.87
76424;BME280;65257;52.104;4.268;2024-03-23T11:02:48;100821.84;;;24.28;26.43
76424;BME280;65257;52.104;4.268;2024-03-23T11:05:29;100819.81;;;23.49;27.07
76424;BME280;65257;52.104;4.268;2024-03-23T11:07:57;100835.69;;;21.39;29.35
76424;BME280;65257;52.104;4.268;2024-03-23T11:10:32;100822.94;;;22.44;28.85
76424;BME280;65257;52.104;4.268;2024-03-23T11:13:32;100813.47;;;24.84;27.49
76424;BME280;65257;52.104;4.268;2024-03-23T11:16:13;100812.78;;;23.91;27.40
76424;BME280;65257;52.104;4.268;2024-03-23T11:18:39;100817.53;;;24.57;26.23
76424;BME280;65257;52.104;4.268;2024-03-23T11:21:07;100812.13;;;25.64;25.11
76424;BME280;65257;52.104;4.268;2024-03-23T11:23:32;100809.75;;;24.60;25.98
76424;BME280;65257;52.104;4.268;2024-03-23T11:25:57;100809.91;;;21.89;28.93
76424;BME280;65257;52.104;4.268;2024-03-23T11:28:23;100821.31;;;21.32;30.54
76424;BME280;65257;52.104;4.268;2024-03-23T11:30:48;100811.25;;;23.95;28.03
76424;BME280;65257;52.104;4.268;2024-03-23T11:33:14;100809.00;;;25.61;25.90
76424;BME280;65257;52.104;4.268;2024-03-23T11:35:40;100801.38;;;24.25;26.39
76424;BME280;65257;52.104;4.268;2024-03-23T11:38:14;100807.16;;;23.61;27.44
76424;BME280;65257;52.104;4.268;2024-03-23T11:40:41;100809.66;;;22.30;28.23
76424;BME280;65257;52.104;4.268;2024-03-23T11:43:08;100804.84;;;22.38;28.37
76424;BME280;65257;52.104;4.268;2024-03-23T11:45:51;100801.50;;;23.32;27.02
76424;BME280;65257;52.104;4.268;2024-03-23T11:48:24;100806.88;;;22.63;27.98
76424;BME280;65257;52.104;4.268;2024-03-23T11:50:50;100795.84;;;23.02;27.96
76424;BME280;65257;52.104;4.268;2024-03-23T11:53:17;100813.25;;;22.81;27.79
76424;BME280;65257;52.104;4.268;2024-03-23T11:55:56;100788.78;;;24.31;26.54
76424;BME280;65257;52.104;4.268;2024-03-23T11:58:25;100798.41;;;25.00;24.60
76424;BME280;65257;52.104;4.268;2024-03-23T12:01:04;100791.19;;;22.71;26.96
76424;BME280;65257;52.104;4.268;2024-03-23T12:03:33;100801.72;;;19.94;29.89
76424;BME280;65257;52.104;4.268;2024-03-23T12:06:03;100783.59;;;17.88;33.42
76424;BME280;65257;52.104;4.268;2024-03-23T12:08:51;100794.63;;;16.41;35.80
76424;BME280;65257;52.104;4.268;2024-03-23T12:11:19;100798.97;;;15.14;38.17
76424;BME280;65257;52.104;4.268;2024-03-23T12:13:45;100799.94;;;14.39;39.99
76424;BME280;65257;52.104;4.268;2024-03-23T12:16:12;100792.13;;;13.94;40.68
76424;BME280;65257;52.104;4.268;2024-03-23T12:18:43;100793.75;;;14.97;39.81
76424;BME280;65257;52.104;4.268;2024-03-23T12:21:12;100780.72;;;15.34;39.27
76424;BME280;65257;52.104;4.268;2024-03-23T12:23:44;100788.88;;;14.92;40.09
76424;BME280;65257;52.104;4.268;2024-03-23T12:26:10;100788.78;;;14.52;40.97
76424;BME280;65257;52.104;4.268;2024-03-23T12:28:46;100768.75;;;16.87;38.51
76424;BME280;65257;52.104;4.268;2024-03-23T12:31:11;100773.19;;;19.15;35.84
76424;BME280;65257;52.104;4.268;2024-03-23T12:33:36;100753.91;;;20.23;33.42
76424;BME280;65257;52.104;4.268;2024-03-23T12:36:05;100759.22;;;20.37;31.34
76424;BME280;65257;52.104;4.268;2024-03-23T12:38:31;100751.19;;;18.11;33.05
76424;BME280;65257;52.104;4.268;2024-03-23T12:40:56;100749.28;;;16.15;35.35
76424;BME280;65257;52.104;4.268;2024-03-23T12:43:23;100760.09;;;14.86;38.18
76424;BME280;65257;52.104;4.268;2024-03-23T12:45:49;100763.13;;;15.15;38.72
76424;BME280;65257;52.104;4.268;2024-03-23T12:48:17;100740.19;;;15.77;38.45
76424;BME280;65257;52.104;4.268;2024-03-23T12:50:43;100748.59;;;16.52;38.08
76424;BME280;65257;52.104;4.268;2024-03-23T12:53:11;100757.00;;;17.10;36.57
76424;BME280;65257;52.104;4.268;2024-03-23T12:55:37;100747.84;;;17.80;35.58
76424;BME280;65257;52.104;4.268;2024-03-23T12:58:05;100746.19;;;16.96;36.51
76424;BME280;65257;52.104;4.268;2024-03-23T13:00:33;100747.13;;;17.26;36.09
76424;BME280;65257;52.104;4.268;2024-03-23T13:03:01;100740.66;;;17.57;35.60
76424;BME280;65257;52.104;4.268;2024-03-23T13:05:27;100750.91;;;17.77;34.87
76424;BME280;65257;52.104;4.268;2024-03-23T13:07:52;100754.94;;;17.58;35.26
76424;BME280;65257;52.104;4.268;2024-03-23T13:10:17;100758.03;;;17.47;35.56
76424;BME280;65257;52.104;4.268;2024-03-23T13:12:43;100749.59;;;17.50;35.74
76424;BME280;65257;52.104;4.268;2024-03-23T13:15:09;100757.38;;;17.45;35.62
76424;BME280;65257;52.104;4.268;2024-03-23T13:17:36;100743.44;;;17.27;35.86
76424;BME280;65257;52.104;4.268;2024-03-23T13:20:06;100741.16;;;17.16;35.91
76424;BME280;65257;52.104;4.268;2024-03-23T13:22:39;100739.38;;;16.85;35.92
76424;BME280;65257;52.104;4.268;2024-03-23T13:25:08;100737.09;;;16.43;36.60
76424;BME280;65257;52.104;4.268;2024-03-23T13:27:34;100737.38;;;16.10;37.39
76424;BME280;65257;52.104;4.268;2024-03-23T13:30:03;100742.38;;;15.66;38.45
76424;BME280;65257;52.104;4.268;2024-03-23T13:32:32;100738.53;;;14.96;40.11
76424;BME280;65257;52.104;4.268;2024-03-23T13:35:00;100744.84;;;13.95;42.33
76424;BME280;65257;52.104;4.268;2024-03-23T13:37:26;100742.38;;;13.07;45.14
76424;BME280;65257;52.104;4.268;2024-03-23T13:39:55;100752.47;;;12.50;47.84
76424;BME280;65257;52.104;4.268;2024-03-23T13:42:20;100747.31;;;12.21;48.79
76424;BME280;65257;52.104;4.268;2024-03-23T13:44:45;100749.13;;;12.21;47.41
76424;BME280;65257;52.104;4.268;2024-03-23T13:47:11;100749.91;;;12.31;47.18
76424;BME280;65257;52.104;4.268;2024-03-23T13:49:39;100746.00;;;12.25;46.75
76424;BME280;65257;52.104;4.268;2024-03-23T13:52:05;100738.81;;;12.08;47.49
76424;BME280;65257;52.104;4.268;2024-03-23T13:54:35;100740.03;;;12.14;48.02
76424;BME280;65257;52.104;4.268;2024-03-23T13:57:00;100736.13;;;12.08;48.52